sensor_id;sensor_type;location;lat;lon;timestamp;P1;durP1;ratioP1;P2;durP2;ratioP2
41705;SDS011;27385;51.096;17.190;2023-12-29T00:02:32;16.90;;;4.60;;
41705;SDS011;27385;51.096;17.190;2023-12-29T00:05:22;15.00;;;4.40;;
41705;SDS011;27385;51.096;17.190;2023-12-29T00:08:14;11.80;;;3.20;;
41705;SDS011;27385;51.096;17.190;2023-12-29T00:11:05;10.10;;;3.00;;
41705;SDS011;27385;51.096;17.190;2023-12-29T00:13:55;11.50;;;3.20;;
41705;SDS011;27385;51.096;17.190;2023-12-29T00:16:46;14.00;;;4.20;;
41705;SDS011;27385;51.096;17.190;2023-12-29T00:22:26;13.90;;;3.50;;
41705;SDS011;27385;51.096;17.190;2023-12-29T00:25:17;14.60;;;4.40;;
41705;SDS011;27385;51.096;17.190;2023-12-29T00:28:08;11.20;;;4.30;;
41705;SDS011;27385;51.096;17.190;2023-12-29T00:30:59;15.40;;;4.20;;
41705;SDS011;27385;51.096;17.190;2023-12-29T00:36:41;14.80;;;3.50;;
41705;SDS011;27385;51.096;17.190;2023-12-29T00:39:32;17.00;;;4.10;;
41705;SDS011;27385;51.096;17.190;2023-12-29T00:42:26;17.30;;;4.60;;
41705;SDS011;27385;51.096;17.190;2023-12-29T00:48:06;12.70;;;3.90;;
41705;SDS011;27385;51.096;17.190;2023-12-29T00:50:57;13.60;;;3.40;;
41705;SDS011;27385;51.096;17.190;2023-12-29T00:53:49;15.40;;;3.70;;
41705;SDS011;27385;51.096;17.190;2023-12-29T00:56:40;14.20;;;3.80;;
41705;SDS011;27385;51.096;17.190;2023-12-29T00:59:38;13.10;;;3.70;;
41705;SDS011;27385;51.096;17.190;2023-12-29T01:02:30;11.50;;;3.30;;
41705;SDS011;27385;51.096;17.190;2023-12-29T01:05:20;15.40;;;3.80;;
41705;SDS011;27385;51.096;17.190;2023-12-29T01:08:12;11.30;;;2.80;;
41705;SDS011;27385;51.096;17.190;2023-12-29T01:11:03;10.40;;;3.10;;
41705;SDS011;27385;51.096;17.190;2023-12-29T01:13:53;14.00;;;3.70;;
41705;SDS011;27385;51.096;17.190;2023-12-29T01:19:33;16.60;;;4.30;;
41705;SDS011;27385;51.096;17.190;2023-12-29T01:22:24;13.10;;;3.50;;
41705;SDS011;27385;51.096;17.190;2023-12-29T01:25:15;12.50;;;3.10;;
41705;SDS011;27385;51.096;17.190;2023-12-29T01:28:06;9.80;;;2.90;;
41705;SDS011;27385;51.096;17.190;2023-12-29T01:30:57;10.30;;;3.20;;
41705;SDS011;27385;51.096;17.190;2023-12-29T01:33:48;18.00;;;3.80;;
41705;SDS011;27385;51.096;17.190;2023-12-29T01:36:39;14.50;;;3.90;;
41705;SDS011;27385;51.096;17.190;2023-12-29T01:39:30;12.00;;;3.30;;
41705;SDS011;27385;51.096;17.190;2023-12-29T01:42:22;12.90;;;3.20;;
41705;SDS011;27385;51.096;17.190;2023-12-29T01:48:08;13.40;;;3.40;;
41705;SDS011;27385;51.096;17.190;2023-12-29T01:50:59;12.20;;;2.90;;
41705;SDS011;27385;51.096;17.190;2023-12-29T01:53:50;10.60;;;3.40;;
41705;SDS011;27385;51.096;17.190;2023-12-29T01:56:43;13.10;;;3.30;;
41705;SDS011;27385;51.096;17.190;2023-12-29T01:59:34;12.10;;;3.60;;
41705;SDS011;27385;51.096;17.190;2023-12-29T02:02:26;13.50;;;3.70;;
41705;SDS011;27385;51.096;17.190;2023-12-29T02:05:17;11.20;;;2.80;;
41705;SDS011;27385;51.096;17.190;2023-12-29T02:08:11;14.40;;;3.90;;
41705;SDS011;27385;51.096;17.190;2023-12-29T02:11:03;17.00;;;4.20;;
41705;SDS011;27385;51.096;17.190;2023-12-29T02:13:54;12.90;;;2.80;;
41705;SDS011;27385;51.096;17.190;2023-12-29T02:16:47;13.20;;;3.50;;
41705;SDS011;27385;51.096;17.190;2023-12-29T02:19:46;11.80;;;3.00;;
41705;SDS011;27385;51.096;17.190;2023-12-29T02:22:38;9.30;;;2.80;;
41705;SDS011;27385;51.096;17.190;2023-12-29T02:25:29;10.10;;;2.60;;
41705;SDS011;27385;51.096;17.190;2023-12-29T02:28:22;12.10;;;3.20;;
41705;SDS011;27385;51.096;17.190;2023-12-29T02:31:16;9.40;;;2.20;;
41705;SDS011;27385;51.096;17.190;2023-12-29T02:34:09;15.00;;;2.40;;
41705;SDS011;27385;51.096;17.190;2023-12-29T02:37:01;8.10;;;2.20;;
41705;SDS011;27385;51.096;17.190;2023-12-29T02:39:54;12.40;;;2.90;;
41705;SDS011;27385;51.096;17.190;2023-12-29T02:42:46;14.90;;;3.60;;
41705;SDS011;27385;51.096;17.190;2023-12-29T02:45:37;12.30;;;3.00;;
41705;SDS011;27385;51.096;17.190;2023-12-29T02:48:28;12.30;;;3.00;;
41705;SDS011;27385;51.096;17.190;2023-12-29T02:51:19;14.30;;;3.80;;
41705;SDS011;27385;51.096;17.190;2023-12-29T02:54:09;14.30;;;2.90;;
41705;SDS011;27385;51.096;17.190;2023-12-29T02:57:00;11.90;;;2.90;;
41705;SDS011;27385;51.096;17.190;2023-12-29T02:59:51;12.40;;;2.80;;
41705;SDS011;27385;51.096;17.190;2023-12-29T03:02:42;14.10;;;3.50;;
41705;SDS011;27385;51.096;17.190;2023-12-29T03:05:33;17.10;;;4.50;;
41705;SDS011;27385;51.096;17.190;2023-12-29T03:08:24;15.20;;;3.90;;
41705;SDS011;27385;51.096;17.190;2023-12-29T03:11:15;9.50;;;2.90;;
41705;SDS011;27385;51.096;17.190;2023-12-29T03:14:06;22.60;;;5.60;;
41705;SDS011;27385;51.096;17.190;2023-12-29T03:16:57;13.60;;;2.70;;
41705;SDS011;27385;51.096;17.190;2023-12-29T03:19:48;13.60;;;2.90;;
41705;SDS011;27385;51.096;17.190;2023-12-29T03:22:40;10.00;;;2.70;;
41705;SDS011;27385;51.096;17.190;2023-12-29T03:25:31;13.30;;;3.20;;
41705;SDS011;27385;51.096;17.190;2023-12-29T03:31:11;12.60;;;3.30;;
41705;SDS011;27385;51.096;17.190;2023-12-29T03:34:02;8.10;;;2.30;;
41705;SDS011;27385;51.096;17.190;2023-12-29T03:39:42;10.60;;;2.50;;
41705;SDS011;27385;51.096;17.190;2023-12-29T03:42:33;10.30;;;2.40;;
41705;SDS011;27385;51.096;17.190;2023-12-29T03:45:24;13.00;;;3.10;;
41705;SDS011;27385;51.096;17.190;2023-12-29T03:48:15;18.50;;;2.90;;
41705;SDS011;27385;51.096;17.190;2023-12-29T03:51:05;10.50;;;2.70;;
41705;SDS011;27385;51.096;17.190;2023-12-29T03:53:56;14.10;;;2.40;;
41705;SDS011;27385;51.096;17.190;2023-12-29T03:56:47;13.60;;;3.30;;
41705;SDS011;27385;51.096;17.190;2023-12-29T03:59:37;12.50;;;3.40;;
41705;SDS011;27385;51.096;17.190;2023-12-29T04:02:29;13.50;;;2.60;;
41705;SDS011;27385;51.096;17.190;2023-12-29T04:05:19;12.30;;;2.30;;
41705;SDS011;27385;51.096;17.190;2023-12-29T04:08:10;9.10;;;2.00;;
41705;SDS011;27385;51.096;17.190;2023-12-29T04:11:01;8.00;;;1.90;;
41705;SDS011;27385;51.096;17.190;2023-12-29T04:13:53;7.50;;;1.60;;
41705;SDS011;27385;51.096;17.190;2023-12-29T04:16:43;9.90;;;2.00;;
41705;SDS011;27385;51.096;17.190;2023-12-29T04:19:34;13.50;;;2.40;;
41705;SDS011;27385;51.096;17.190;2023-12-29T04:22:25;8.80;;;1.70;;
41705;SDS011;27385;51.096;17.190;2023-12-29T04:25:16;8.50;;;2.30;;
41705;SDS011;27385;51.096;17.190;2023-12-29T04:28:07;10.20;;;2.10;;
41705;SDS011;27385;51.096;17.190;2023-12-29T04:30:58;10.70;;;2.00;;
41705;SDS011;27385;51.096;17.190;2023-12-29T04:33:50;7.00;;;1.80;;
41705;SDS011;27385;51.096;17.190;2023-12-29T04:36:41;9.50;;;2.10;;
41705;SDS011;27385;51.096;17.190;2023-12-29T04:39:32;9.40;;;2.50;;
41705;SDS011;27385;51.096;17.190;2023-12-29T04:42:23;9.50;;;2.30;;
41705;SDS011;27385;51.096;17.190;2023-12-29T04:45:13;10.60;;;2.00;;
41705;SDS011;27385;51.096;17.190;2023-12-29T04:48:05;13.30;;;2.80;;
41705;SDS011;27385;51.096;17.190;2023-12-29T04:50:56;11.20;;;1.90;;
41705;SDS011;27385;51.096;17.190;2023-12-29T04:53:47;9.40;;;2.20;;
41705;SDS011;27385;51.096;17.190;2023-12-29T04:56:38;9.10;;;1.80;;
41705;SDS011;27385;51.096;17.190;2023-12-29T04:59:29;5.30;;;1.70;;
41705;SDS011;27385;51.096;17.190;2023-12-29T05:02:19;7.40;;;1.60;;
41705;SDS011;27385;51.096;17.190;2023-12-29T05:05:11;8.60;;;1.90;;
41705;SDS011;27385;51.096;17.190;2023-12-29T05:08:01;6.70;;;1.70;;
41705;SDS011;27385;51.096;17.190;2023-12-29T05:10:53;8.80;;;2.30;;
41705;SDS011;27385;51.096;17.190;2023-12-29T05:13:44;8.70;;;1.90;;
41705;SDS011;27385;51.096;17.190;2023-12-29T05:19:24;10.60;;;2.20;;
41705;SDS011;27385;51.096;17.190;2023-12-29T05:25:05;10.00;;;2.00;;
41705;SDS011;27385;51.096;17.190;2023-12-29T05:27:57;7.00;;;1.90;;
41705;SDS011;27385;51.096;17.190;2023-12-29T05:33:36;9.80;;;1.80;;
41705;SDS011;27385;51.096;17.190;2023-12-29T05:36:28;7.00;;;1.80;;
41705;SDS011;27385;51.096;17.190;2023-12-29T05:39:19;12.50;;;2.10;;
41705;SDS011;27385;51.096;17.190;2023-12-29T05:42:09;11.60;;;2.30;;
41705;SDS011;27385;51.096;17.190;2023-12-29T05:47:49;9.10;;;2.20;;
41705;SDS011;27385;51.096;17.190;2023-12-29T05:53:29;9.90;;;1.90;;
41705;SDS011;27385;51.096;17.190;2023-12-29T05:56:19;7.30;;;1.50;;
41705;SDS011;27385;51.096;17.190;2023-12-29T05:59:10;6.90;;;1.50;;
41705;SDS011;27385;51.096;17.190;2023-12-29T06:04:50;9.80;;;2.20;;
41705;SDS011;27385;51.096;17.190;2023-12-29T06:07:41;9.50;;;2.50;;
41705;SDS011;27385;51.096;17.190;2023-12-29T06:10:32;12.70;;;2.90;;
41705;SDS011;27385;51.096;17.190;2023-12-29T06:13:25;11.70;;;2.80;;
41705;SDS011;27385;51.096;17.190;2023-12-29T06:16:20;8.50;;;2.00;;
41705;SDS011;27385;51.096;17.190;2023-12-29T06:19:13;10.40;;;1.90;;
41705;SDS011;27385;51.096;17.190;2023-12-29T06:22:04;10.90;;;2.30;;
41705;SDS011;27385;51.096;17.190;2023-12-29T06:24:59;7.20;;;1.80;;
41705;SDS011;27385;51.096;17.190;2023-12-29T06:27:51;7.50;;;1.80;;
41705;SDS011;27385;51.096;17.190;2023-12-29T06:30:42;7.50;;;1.80;;
41705;SDS011;27385;51.096;17.190;2023-12-29T06:33:33;7.40;;;1.90;;
41705;SDS011;27385;51.096;17.190;2023-12-29T06:36:24;10.50;;;1.90;;
41705;SDS011;27385;51.096;17.190;2023-12-29T06:39:15;10.10;;;2.20;;
41705;SDS011;27385;51.096;17.190;2023-12-29T06:42:06;9.60;;;2.20;;
41705;SDS011;27385;51.096;17.190;2023-12-29T06:44:57;10.40;;;2.90;;
41705;SDS011;27385;51.096;17.190;2023-12-29T06:47:48;11.30;;;2.10;;
41705;SDS011;27385;51.096;17.190;2023-12-29T06:50:39;8.80;;;1.80;;
41705;SDS011;27385;51.096;17.190;2023-12-29T06:53:30;11.40;;;2.10;;
41705;SDS011;27385;51.096;17.190;2023-12-29T06:56:21;7.80;;;1.70;;
41705;SDS011;27385;51.096;17.190;2023-12-29T06:59:12;9.60;;;1.80;;
41705;SDS011;27385;51.096;17.190;2023-12-29T07:02:02;8.20;;;1.60;;
41705;SDS011;27385;51.096;17.190;2023-12-29T07:04:54;6.90;;;1.70;;
41705;SDS011;27385;51.096;17.190;2023-12-29T07:07:45;9.50;;;1.80;;
41705;SDS011;27385;51.096;17.190;2023-12-29T07:10:35;9.20;;;1.70;;
41705;SDS011;27385;51.096;17.190;2023-12-29T07:13:27;11.00;;;2.10;;
41705;SDS011;27385;51.096;17.190;2023-12-29T07:16:17;8.60;;;1.80;;
41705;SDS011;27385;51.096;17.190;2023-12-29T07:19:08;7.00;;;2.00;;
41705;SDS011;27385;51.096;17.190;2023-12-29T07:21:59;6.10;;;1.40;;
41705;SDS011;27385;51.096;17.190;2023-12-29T07:24:50;6.70;;;1.60;;
41705;SDS011;27385;51.096;17.190;2023-12-29T07:27:41;8.00;;;1.50;;
41705;SDS011;27385;51.096;17.190;2023-12-29T07:30:32;7.60;;;1.60;;
41705;SDS011;27385;51.096;17.190;2023-12-29T07:33:23;5.70;;;1.40;;
41705;SDS011;27385;51.096;17.190;2023-12-29T07:36:14;7.00;;;1.90;;
41705;SDS011;27385;51.096;17.190;2023-12-29T07:39:05;7.70;;;1.60;;
41705;SDS011;27385;51.096;17.190;2023-12-29T07:41:56;6.70;;;1.60;;
41705;SDS011;27385;51.096;17.190;2023-12-29T07:44:47;7.80;;;2.00;;
41705;SDS011;27385;51.096;17.190;2023-12-29T07:47:39;10.90;;;2.10;;
41705;SDS011;27385;51.096;17.190;2023-12-29T07:50:30;8.10;;;1.60;;
41705;SDS011;27385;51.096;17.190;2023-12-29T07:53:21;10.20;;;1.80;;
41705;SDS011;27385;51.096;17.190;2023-12-29T07:56:12;7.70;;;1.40;;
41705;SDS011;27385;51.096;17.190;2023-12-29T07:59:03;8.00;;;2.00;;
41705;SDS011;27385;51.096;17.190;2023-12-29T08:01:54;10.00;;;1.70;;
41705;SDS011;27385;51.096;17.190;2023-12-29T08:04:46;10.90;;;1.70;;
41705;SDS011;27385;51.096;17.190;2023-12-29T08:07:37;8.00;;;1.40;;
41705;SDS011;27385;51.096;17.190;2023-12-29T08:10:28;9.10;;;2.10;;
41705;SDS011;27385;51.096;17.190;2023-12-29T08:13:20;8.20;;;1.30;;
41705;SDS011;27385;51.096;17.190;2023-12-29T08:16:11;5.70;;;1.20;;
41705;SDS011;27385;51.096;17.190;2023-12-29T08:21:51;9.90;;;2.20;;
41705;SDS011;27385;51.096;17.190;2023-12-29T08:24:42;10.10;;;1.60;;
41705;SDS011;27385;51.096;17.190;2023-12-29T08:27:33;5.40;;;1.70;;
41705;SDS011;27385;51.096;17.190;2023-12-29T08:30:24;6.00;;;1.20;;
41705;SDS011;27385;51.096;17.190;2023-12-29T08:33:15;5.60;;;1.30;;
41705;SDS011;27385;51.096;17.190;2023-12-29T08:36:06;10.20;;;1.70;;
41705;SDS011;27385;51.096;17.190;2023-12-29T08:38:57;7.00;;;1.60;;
41705;SDS011;27385;51.096;17.190;2023-12-29T08:44:38;9.40;;;2.00;;
41705;SDS011;27385;51.096;17.190;2023-12-29T08:47:29;6.20;;;1.50;;
41705;SDS011;27385;51.096;17.190;2023-12-29T08:53:09;7.10;;;1.50;;
41705;SDS011;27385;51.096;17.190;2023-12-29T08:56:00;4.10;;;1.10;;
41705;SDS011;27385;51.096;17.190;2023-12-29T08:58:51;10.50;;;1.40;;
41705;SDS011;27385;51.096;17.190;2023-12-29T09:01:42;6.50;;;1.00;;
41705;SDS011;27385;51.096;17.190;2023-12-29T09:07:22;4.90;;;1.00;;
41705;SDS011;27385;51.096;17.190;2023-12-29T09:10:14;6.50;;;1.30;;
41705;SDS011;27385;51.096;17.190;2023-12-29T09:13:05;6.90;;;1.00;;
41705;SDS011;27385;51.096;17.190;2023-12-29T09:15:58;4.40;;;0.90;;
41705;SDS011;27385;51.096;17.190;2023-12-29T09:18:49;6.30;;;0.90;;
41705;SDS011;27385;51.096;17.190;2023-12-29T09:24:28;7.10;;;1.50;;
41705;SDS011;27385;51.096;17.190;2023-12-29T09:30:09;6.20;;;0.90;;
41705;SDS011;27385;51.096;17.190;2023-12-29T09:33:00;6.40;;;1.00;;
41705;SDS011;27385;51.096;17.190;2023-12-29T09:35:51;4.70;;;0.90;;
41705;SDS011;27385;51.096;17.190;2023-12-29T09:38:41;6.70;;;0.90;;
41705;SDS011;27385;51.096;17.190;2023-12-29T09:41:34;6.50;;;1.10;;
41705;SDS011;27385;51.096;17.190;2023-12-29T09:44:30;4.50;;;0.90;;
41705;SDS011;27385;51.096;17.190;2023-12-29T09:47:24;5.00;;;0.90;;
41705;SDS011;27385;51.096;17.190;2023-12-29T09:50:15;5.20;;;0.90;;
41705;SDS011;27385;51.096;17.190;2023-12-29T09:53:08;5.00;;;1.00;;
41705;SDS011;27385;51.096;17.190;2023-12-29T09:56:01;4.30;;;0.90;;
41705;SDS011;27385;51.096;17.190;2023-12-29T09:58:53;5.40;;;1.00;;
41705;SDS011;27385;51.096;17.190;2023-12-29T10:01:45;6.40;;;0.90;;
41705;SDS011;27385;51.096;17.190;2023-12-29T10:04:37;6.00;;;0.90;;
41705;SDS011;27385;51.096;17.190;2023-12-29T10:07:27;4.90;;;1.00;;
41705;SDS011;27385;51.096;17.190;2023-12-29T10:10:20;6.50;;;1.20;;
41705;SDS011;27385;51.096;17.190;2023-12-29T10:13:12;5.70;;;0.80;;
41705;SDS011;27385;51.096;17.190;2023-12-29T10:16:07;6.60;;;1.00;;
41705;SDS011;27385;51.096;17.190;2023-12-29T10:19:07;4.50;;;1.20;;
41705;SDS011;27385;51.096;17.190;2023-12-29T10:22:08;3.90;;;0.80;;
41705;SDS011;27385;51.096;17.190;2023-12-29T10:25:04;3.50;;;0.70;;
41705;SDS011;27385;51.096;17.190;2023-12-29T10:27:56;3.00;;;0.70;;
41705;SDS011;27385;51.096;17.190;2023-12-29T10:30:47;5.30;;;0.70;;
41705;SDS011;27385;51.096;17.190;2023-12-29T10:33:38;5.30;;;1.00;;
41705;SDS011;27385;51.096;17.190;2023-12-29T10:36:29;3.50;;;0.70;;
41705;SDS011;27385;51.096;17.190;2023-12-29T10:39:37;4.10;;;0.80;;
41705;SDS011;27385;51.096;17.190;2023-12-29T10:42:28;2.60;;;0.60;;
41705;SDS011;27385;51.096;17.190;2023-12-29T10:45:19;3.10;;;0.60;;
41705;SDS011;27385;51.096;17.190;2023-12-29T10:48:09;4.00;;;1.00;;
41705;SDS011;27385;51.096;17.190;2023-12-29T10:51:00;3.80;;;0.70;;
41705;SDS011;27385;51.096;17.190;2023-12-29T10:53:55;4.70;;;0.70;;
41705;SDS011;27385;51.096;17.190;2023-12-29T10:56:46;3.80;;;0.70;;
41705;SDS011;27385;51.096;17.190;2023-12-29T10:59:55;3.90;;;0.80;;
41705;SDS011;27385;51.096;17.190;2023-12-29T11:02:50;3.80;;;0.70;;
41705;SDS011;27385;51.096;17.190;2023-12-29T11:05:43;4.90;;;0.70;;
41705;SDS011;27385;51.096;17.190;2023-12-29T11:08:35;3.00;;;0.60;;
41705;SDS011;27385;51.096;17.190;2023-12-29T11:11:25;4.20;;;0.60;;
41705;SDS011;27385;51.096;17.190;2023-12-29T11:14:16;2.40;;;0.60;;
41705;SDS011;27385;51.096;17.190;2023-12-29T11:17:08;3.00;;;0.60;;
41705;SDS011;27385;51.096;17.190;2023-12-29T11:20:00;4.10;;;1.00;;
41705;SDS011;27385;51.096;17.190;2023-12-29T11:22:52;5.00;;;1.00;;
41705;SDS011;27385;51.096;17.190;2023-12-29T11:25:44;3.10;;;0.70;;
41705;SDS011;27385;51.096;17.190;2023-12-29T11:28:36;2.70;;;0.70;;
41705;SDS011;27385;51.096;17.190;2023-12-29T11:31:27;4.60;;;1.00;;
41705;SDS011;27385;51.096;17.190;2023-12-29T11:34:19;4.80;;;0.70;;
41705;SDS011;27385;51.096;17.190;2023-12-29T11:37:15;3.80;;;0.80;;
41705;SDS011;27385;51.096;17.190;2023-12-29T11:40:17;3.60;;;0.50;;
41705;SDS011;27385;51.096;17.190;2023-12-29T11:43:12;3.50;;;0.70;;
41705;SDS011;27385;51.096;17.190;2023-12-29T11:46:06;5.10;;;0.70;;
41705;SDS011;27385;51.096;17.190;2023-12-29T11:49:17;3.00;;;0.60;;
41705;SDS011;27385;51.096;17.190;2023-12-29T11:52:07;5.00;;;0.70;;
41705;SDS011;27385;51.096;17.190;2023-12-29T11:55:01;2.90;;;0.50;;
41705;SDS011;27385;51.096;17.190;2023-12-29T11:57:58;4.20;;;0.80;;
41705;SDS011;27385;51.096;17.190;2023-12-29T12:00:49;4.20;;;0.70;;
41705;SDS011;27385;51.096;17.190;2023-12-29T12:03:40;5.20;;;0.90;;
41705;SDS011;27385;51.096;17.190;2023-12-29T12:06:40;3.40;;;0.70;;
41705;SDS011;27385;51.096;17.190;2023-12-29T12:09:31;3.00;;;0.60;;
41705;SDS011;27385;51.096;17.190;2023-12-29T12:15:33;5.60;;;0.90;;
41705;SDS011;27385;51.096;17.190;2023-12-29T12:18:25;4.20;;;0.80;;
41705;SDS011;27385;51.096;17.190;2023-12-29T12:21:17;5.70;;;0.80;;
41705;SDS011;27385;51.096;17.190;2023-12-29T12:24:10;4.80;;;0.60;;
41705;SDS011;27385;51.096;17.190;2023-12-29T12:27:01;5.70;;;0.90;;
41705;SDS011;27385;51.096;17.190;2023-12-29T12:29:53;3.90;;;0.70;;
41705;SDS011;27385;51.096;17.190;2023-12-29T12:32:47;3.50;;;0.70;;
41705;SDS011;27385;51.096;17.190;2023-12-29T12:35:46;6.20;;;0.90;;
41705;SDS011;27385;51.096;17.190;2023-12-29T12:38:51;6.10;;;0.80;;
41705;SDS011;27385;51.096;17.190;2023-12-29T12:41:43;4.20;;;1.10;;
41705;SDS011;27385;51.096;17.190;2023-12-29T12:44:34;8.10;;;1.10;;
41705;SDS011;27385;51.096;17.190;2023-12-29T12:47:33;4.20;;;1.10;;
41705;SDS011;27385;51.096;17.190;2023-12-29T12:50:25;6.80;;;0.80;;
41705;SDS011;27385;51.096;17.190;2023-12-29T12:53:16;4.30;;;1.00;;
41705;SDS011;27385;51.096;17.190;2023-12-29T12:56:08;3.80;;;1.00;;
41705;SDS011;27385;51.096;17.190;2023-12-29T12:58:59;5.00;;;0.80;;
41705;SDS011;27385;51.096;17.190;2023-12-29T13:01:52;4.30;;;1.00;;
41705;SDS011;27385;51.096;17.190;2023-12-29T13:04:43;4.90;;;1.00;;
41705;SDS011;27385;51.096;17.190;2023-12-29T13:07:34;5.20;;;1.10;;
41705;SDS011;27385;51.096;17.190;2023-12-29T13:10:25;5.30;;;0.90;;
41705;SDS011;27385;51.096;17.190;2023-12-29T13:13:16;5.60;;;0.90;;
41705;SDS011;27385;51.096;17.190;2023-12-29T13:16:07;3.70;;;1.00;;
41705;SDS011;27385;51.096;17.190;2023-12-29T13:19:08;5.20;;;0.90;;
41705;SDS011;27385;51.096;17.190;2023-12-29T13:22:07;6.70;;;1.40;;
41705;SDS011;27385;51.096;17.190;2023-12-29T13:24:59;6.10;;;1.10;;
41705;SDS011;27385;51.096;17.190;2023-12-29T13:27:54;5.20;;;1.20;;
41705;SDS011;27385;51.096;17.190;2023-12-29T13:30:46;5.60;;;1.10;;
41705;SDS011;27385;51.096;17.190;2023-12-29T13:33:40;5.10;;;1.30;;
41705;SDS011;27385;51.096;17.190;2023-12-29T13:36:38;7.50;;;1.00;;
41705;SDS011;27385;51.096;17.190;2023-12-29T13:39:35;4.50;;;1.00;;
41705;SDS011;27385;51.096;17.190;2023-12-29T13:42:30;6.10;;;1.00;;
41705;SDS011;27385;51.096;17.190;2023-12-29T13:45:23;5.40;;;1.10;;
41705;SDS011;27385;51.096;17.190;2023-12-29T13:48:15;4.40;;;0.90;;
41705;SDS011;27385;51.096;17.190;2023-12-29T13:51:07;5.30;;;1.10;;
41705;SDS011;27385;51.096;17.190;2023-12-29T13:53:58;10.20;;;1.50;;
41705;SDS011;27385;51.096;17.190;2023-12-29T13:56:53;4.10;;;1.00;;
41705;SDS011;27385;51.096;17.190;2023-12-29T13:59:43;5.40;;;1.10;;
41705;SDS011;27385;51.096;17.190;2023-12-29T14:02:36;6.20;;;1.10;;
41705;SDS011;27385;51.096;17.190;2023-12-29T14:05:35;6.40;;;1.20;;
41705;SDS011;27385;51.096;17.190;2023-12-29T14:08:33;5.50;;;1.20;;
41705;SDS011;27385;51.096;17.190;2023-12-29T14:11:29;6.10;;;1.30;;
41705;SDS011;27385;51.096;17.190;2023-12-29T14:14:23;10.70;;;1.70;;
41705;SDS011;27385;51.096;17.190;2023-12-29T14:17:21;8.50;;;1.30;;
41705;SDS011;27385;51.096;17.190;2023-12-29T14:20:12;9.70;;;2.00;;
41705;SDS011;27385;51.096;17.190;2023-12-29T14:23:23;11.50;;;2.00;;
41705;SDS011;27385;51.096;17.190;2023-12-29T14:29:03;15.20;;;2.10;;
41705;SDS011;27385;51.096;17.190;2023-12-29T14:31:55;9.80;;;2.00;;
41705;SDS011;27385;51.096;17.190;2023-12-29T14:34:48;14.60;;;3.20;;
41705;SDS011;27385;51.096;17.190;2023-12-29T14:37:40;11.60;;;2.30;;
41705;SDS011;27385;51.096;17.190;2023-12-29T14:40:31;8.80;;;1.60;;
41705;SDS011;27385;51.096;17.190;2023-12-29T14:43:22;10.60;;;2.20;;
41705;SDS011;27385;51.096;17.190;2023-12-29T14:46:12;10.60;;;2.60;;
41705;SDS011;27385;51.096;17.190;2023-12-29T14:49:04;17.90;;;3.40;;
41705;SDS011;27385;51.096;17.190;2023-12-29T14:51:55;11.30;;;2.20;;
41705;SDS011;27385;51.096;17.190;2023-12-29T14:54:46;11.10;;;2.50;;
41705;SDS011;27385;51.096;17.190;2023-12-29T14:57:37;12.20;;;2.60;;
41705;SDS011;27385;51.096;17.190;2023-12-29T15:00:28;12.40;;;2.70;;
41705;SDS011;27385;51.096;17.190;2023-12-29T15:03:19;14.50;;;3.10;;
41705;SDS011;27385;51.096;17.190;2023-12-29T15:06:11;17.90;;;4.70;;
41705;SDS011;27385;51.096;17.190;2023-12-29T15:09:02;14.80;;;3.90;;
41705;SDS011;27385;51.096;17.190;2023-12-29T15:11:55;15.30;;;4.50;;
41705;SDS011;27385;51.096;17.190;2023-12-29T15:14:46;12.60;;;3.20;;
41705;SDS011;27385;51.096;17.190;2023-12-29T15:17:37;13.90;;;2.30;;
41705;SDS011;27385;51.096;17.190;2023-12-29T15:20:28;12.80;;;2.80;;
41705;SDS011;27385;51.096;17.190;2023-12-29T15:23:20;9.90;;;2.20;;
41705;SDS011;27385;51.096;17.190;2023-12-29T15:26:11;12.20;;;2.70;;
41705;SDS011;27385;51.096;17.190;2023-12-29T15:29:03;8.50;;;1.70;;
41705;SDS011;27385;51.096;17.190;2023-12-29T15:31:54;10.80;;;2.10;;
41705;SDS011;27385;51.096;17.190;2023-12-29T15:37:35;9.70;;;1.90;;
41705;SDS011;27385;51.096;17.190;2023-12-29T15:40:26;10.80;;;2.50;;
41705;SDS011;27385;51.096;17.190;2023-12-29T15:43:16;12.40;;;2.20;;
41705;SDS011;27385;51.096;17.190;2023-12-29T15:46:13;11.30;;;2.20;;
41705;SDS011;27385;51.096;17.190;2023-12-29T15:49:04;14.70;;;3.10;;
41705;SDS011;27385;51.096;17.190;2023-12-29T15:51:55;13.90;;;3.10;;
41705;SDS011;27385;51.096;17.190;2023-12-29T15:54:46;15.20;;;3.90;;
41705;SDS011;27385;51.096;17.190;2023-12-29T16:00:26;16.40;;;4.90;;
41705;SDS011;27385;51.096;17.190;2023-12-29T16:03:17;22.40;;;6.80;;
41705;SDS011;27385;51.096;17.190;2023-12-29T16:06:08;18.50;;;5.20;;
41705;SDS011;27385;51.096;17.190;2023-12-29T16:09:08;27.90;;;8.60;;
41705;SDS011;27385;51.096;17.190;2023-12-29T16:11:59;53.80;;;20.00;;
41705;SDS011;27385;51.096;17.190;2023-12-29T16:14:50;31.80;;;11.80;;
41705;SDS011;27385;51.096;17.190;2023-12-29T16:17:41;24.10;;;7.40;;
41705;SDS011;27385;51.096;17.190;2023-12-29T16:20:32;24.20;;;7.70;;
41705;SDS011;27385;51.096;17.190;2023-12-29T16:23:23;17.50;;;5.50;;
41705;SDS011;27385;51.096;17.190;2023-12-29T16:26:13;14.40;;;4.70;;
41705;SDS011;27385;51.096;17.190;2023-12-29T16:29:04;13.60;;;4.40;;
41705;SDS011;27385;51.096;17.190;2023-12-29T16:31:55;13.30;;;3.30;;
41705;SDS011;27385;51.096;17.190;2023-12-29T16:34:46;11.80;;;3.20;;
41705;SDS011;27385;51.096;17.190;2023-12-29T16:37:37;11.80;;;3.40;;
41705;SDS011;27385;51.096;17.190;2023-12-29T16:40:29;15.10;;;3.10;;
41705;SDS011;27385;51.096;17.190;2023-12-29T16:43:20;13.00;;;2.90;;
41705;SDS011;27385;51.096;17.190;2023-12-29T16:46:11;10.90;;;2.30;;
41705;SDS011;27385;51.096;17.190;2023-12-29T16:49:02;11.50;;;2.40;;
41705;SDS011;27385;51.096;17.190;2023-12-29T16:51:52;11.80;;;2.40;;
41705;SDS011;27385;51.096;17.190;2023-12-29T16:54:43;11.90;;;2.50;;
41705;SDS011;27385;51.096;17.190;2023-12-29T17:00:23;10.20;;;2.10;;
41705;SDS011;27385;51.096;17.190;2023-12-29T17:03:13;11.60;;;1.80;;
41705;SDS011;27385;51.096;17.190;2023-12-29T17:06:05;6.00;;;1.70;;
41705;SDS011;27385;51.096;17.190;2023-12-29T17:08:56;5.70;;;1.30;;
41705;SDS011;27385;51.096;17.190;2023-12-29T17:11:47;6.90;;;1.40;;
41705;SDS011;27385;51.096;17.190;2023-12-29T17:14:38;7.90;;;1.70;;
41705;SDS011;27385;51.096;17.190;2023-12-29T17:17:29;9.00;;;1.70;;
41705;SDS011;27385;51.096;17.190;2023-12-29T17:20:19;9.40;;;1.80;;
41705;SDS011;27385;51.096;17.190;2023-12-29T17:23:10;7.30;;;1.40;;
41705;SDS011;27385;51.096;17.190;2023-12-29T17:26:01;11.20;;;1.50;;
41705;SDS011;27385;51.096;17.190;2023-12-29T17:28:57;8.40;;;1.40;;
41705;SDS011;27385;51.096;17.190;2023-12-29T17:31:48;6.90;;;1.20;;
41705;SDS011;27385;51.096;17.190;2023-12-29T17:34:40;7.30;;;1.50;;
41705;SDS011;27385;51.096;17.190;2023-12-29T17:37:31;7.70;;;1.20;;
41705;SDS011;27385;51.096;17.190;2023-12-29T17:43:11;8.80;;;1.40;;
41705;SDS011;27385;51.096;17.190;2023-12-29T17:46:04;4.60;;;1.10;;
41705;SDS011;27385;51.096;17.190;2023-12-29T17:48:56;5.10;;;1.20;;
41705;SDS011;27385;51.096;17.190;2023-12-29T17:51:47;10.10;;;1.70;;
41705;SDS011;27385;51.096;17.190;2023-12-29T17:54:40;7.10;;;1.30;;
41705;SDS011;27385;51.096;17.190;2023-12-29T17:57:31;6.40;;;1.30;;
41705;SDS011;27385;51.096;17.190;2023-12-29T18:00:24;8.00;;;1.70;;
41705;SDS011;27385;51.096;17.190;2023-12-29T18:03:17;7.70;;;1.30;;
41705;SDS011;27385;51.096;17.190;2023-12-29T18:06:10;6.90;;;1.10;;